sensor_id;sensor_type;location;lat;lon;timestamp;temperature;humidity
42913;DHT22;50720;54.324;18.558;2023-07-24T00:02:17;15.90;99.90
42913;DHT22;50720;54.324;18.558;2023-07-24T00:04:49;15.90;99.90
42913;DHT22;50720;54.324;18.558;2023-07-24T00:07:18;15.90;99.90
42913;DHT22;50720;54.324;18.558;2023-07-24T00:09:48;15.90;99.90
42913;DHT22;50720;54.324;18.558;2023-07-24T00:12:18;15.80;99.90
42913;DHT22;50720;54.324;18.558;2023-07-24T00:14:48;15.90;99.90
42913;DHT22;50720;54.324;18.558;2023-07-24T00:17:18;15.90;99.90
42913;DHT22;50720;54.324;18.558;2023-07-24T00:19:49;15.80;99.90
42913;DHT22;50720;54.324;18.558;2023-07-24T00:22:19;15.80;99.90
42913;DHT22;50720;54.324;18.558;2023-07-24T00:24:49;15.80;99.90
42913;DHT22;50720;54.324;18.558;2023-07-24T00:27:19;15.90;99.90
42913;DHT22;50720;54.324;18.558;2023-07-24T00:29:49;15.90;99.90
42913;DHT22;50720;54.324;18.558;2023-07-24T00:32:18;15.90;99.90
42913;DHT22;50720;54.324;18.558;2023-07-24T00:34:50;16.00;99.90
42913;DHT22;50720;54.324;18.558;2023-07-24T00:37:20;16.00;99.90
42913;DHT22;50720;54.324;18.558;2023-07-24T00:39:50;15.90;99.90
42913;DHT22;50720;54.324;18.558;2023-07-24T00:42:19;15.90;99.90
42913;DHT22;50720;54.324;18.558;2023-07-24T00:44:50;15.70;99.90
42913;DHT22;50720;54.324;18.558;2023-07-24T00:47:19;15.70;99.90
42913;DHT22;50720;54.324;18.558;2023-07-24T00:49:51;15.70;99.90
42913;DHT22;50720;54.324;18.558;2023-07-24T00:52:21;15.70;99.90
42913;DHT22;50720;54.324;18.558;2023-07-24T00:54:52;15.70;99.90
42913;DHT22;50720;54.324;18.558;2023-07-24T00:57:23;15.60;99.90
42913;DHT22;50720;54.324;18.558;2023-07-24T00:59:54;15.60;99.90
42913;DHT22;50720;54.324;18.558;2023-07-24T01:02:23;15.50;99.90
42913;DHT22;50720;54.324;18.558;2023-07-24T01:04:56;15.50;99.90
42913;DHT22;50720;54.324;18.558;2023-07-24T01:07:26;15.50;99.90
42913;DHT22;50720;54.324;18.558;2023-07-24T01:09:56;15.50;99.90
42913;DHT22;50720;54.324;18.558;2023-07-24T01:12:36;15.50;99.90
42913;DHT22;50720;54.324;18.558;2023-07-24T01:15:10;15.40;99.90
42913;DHT22;50720;54.324;18.558;2023-07-24T01:17:47;15.40;99.90
42913;DHT22;50720;54.324;18.558;2023-07-24T01:20:19;15.40;99.90
42913;DHT22;50720;54.324;18.558;2023-07-24T01:23:04;15.40;99.90
42913;DHT22;50720;54.324;18.558;2023-07-24T01:25:53;15.30;99.90
42913;DHT22;50720;54.324;18.558;2023-07-24T01:28:23;15.30;99.90
42913;DHT22;50720;54.324;18.558;2023-07-24T01:30:53;15.30;99.90
42913;DHT22;50720;54.324;18.558;2023-07-24T01:33:24;15.20;99.90
42913;DHT22;50720;54.324;18.558;2023-07-24T01:35:57;15.20;99.90
42913;DHT22;50720;54.324;18.558;2023-07-24T01:38:27;15.20;99.90
42913;DHT22;50720;54.324;18.558;2023-07-24T01:40:59;15.10;99.90
42913;DHT22;50720;54.324;18.558;2023-07-24T01:43:29;15.10;99.90
42913;DHT22;50720;54.324;18.558;2023-07-24T01:46:00;15.10;99.90
42913;DHT22;50720;54.324;18.558;2023-07-24T01:48:30;15.00;99.90
42913;DHT22;50720;54.324;18.558;2023-07-24T01:51:00;15.00;99.90
42913;DHT22;50720;54.324;18.558;2023-07-24T01:53:29;15.00;99.90
42913;DHT22;50720;54.324;18.558;2023-07-24T01:56:01;14.90;99.90
42913;DHT22;50720;54.324;18.558;2023-07-24T01:58:30;14.90;99.90
42913;DHT22;50720;54.324;18.558;2023-07-24T02:01:01;14.90;99.90
42913;DHT22;50720;54.324;18.558;2023-07-24T02:03:30;14.90;99.90
42913;DHT22;50720;54.324;18.558;2023-07-24T02:06:00;14.80;99.90
42913;DHT22;50720;54.324;18.558;2023-07-24T02:08:30;14.80;99.90
42913;DHT22;50720;54.324;18.558;2023-07-24T02:11:02;14.80;99.90
42913;DHT22;50720;54.324;18.558;2023-07-24T02:13:31;14.80;99.90
42913;DHT22;50720;54.324;18.558;2023-07-24T02:16:01;14.70;99.90
42913;DHT22;50720;54.324;18.558;2023-07-24T02:18:31;14.70;99.90
42913;DHT22;50720;54.324;18.558;2023-07-24T02:21:01;14.70;99.90
42913;DHT22;50720;54.324;18.558;2023-07-24T02:23:30;14.70;99.90
42913;DHT22;50720;54.324;18.558;2023-07-24T02:26:02;14.80;99.90
42913;DHT22;50720;54.324;18.558;2023-07-24T02:28:31;14.70;99.90
42913;DHT22;50720;54.324;18.558;2023-07-24T02:31:02;14.80;99.90
42913;DHT22;50720;54.324;18.558;2023-07-24T02:33:31;14.70;99.90
42913;DHT22;50720;54.324;18.558;2023-07-24T02:36:01;14.70;99.90
42913;DHT22;50720;54.324;18.558;2023-07-24T02:38:31;14.80;99.90
42913;DHT22;50720;54.324;18.558;2023-07-24T02:41:02;14.80;99.90
42913;DHT22;50720;54.324;18.558;2023-07-24T02:43:32;14.80;99.90
42913;DHT22;50720;54.324;18.558;2023-07-24T02:46:02;14.70;99.90
42913;DHT22;50720;54.324;18.558;2023-07-24T02:48:32;14.70;99.90
42913;DHT22;50720;54.324;18.558;2023-07-24T02:51:02;14.60;99.90
42913;DHT22;50720;54.324;18.558;2023-07-24T02:53:32;14.60;99.90
42913;DHT22;50720;54.324;18.558;2023-07-24T02:56:03;14.60;99.90
42913;DHT22;50720;54.324;18.558;2023-07-24T02:58:33;14.60;99.90
42913;DHT22;50720;54.324;18.558;2023-07-24T03:01:03;14.50;99.90
42913;DHT22;50720;54.324;18.558;2023-07-24T03:03:34;14.50;99.90
42913;DHT22;50720;54.324;18.558;2023-07-24T03:06:05;14.60;99.90
42913;DHT22;50720;54.324;18.558;2023-07-24T03:08:34;14.50;99.90
42913;DHT22;50720;54.324;18.558;2023-07-24T03:11:07;14.70;99.90
42913;DHT22;50720;54.324;18.558;2023-07-24T03:13:36;14.70;99.90
42913;DHT22;50720;54.324;18.558;2023-07-24T03:16:09;14.90;99.90
42913;DHT22;50720;54.324;18.558;2023-07-24T03:18:38;14.90;99.90
42913;DHT22;50720;54.324;18.558;2023-07-24T03:21:09;15.00;99.90
42913;DHT22;50720;54.324;18.558;2023-07-24T03:23:39;15.10;99.90
42913;DHT22;50720;54.324;18.558;2023-07-24T03:26:10;15.10;99.90
42913;DHT22;50720;54.324;18.558;2023-07-24T03:28:40;15.10;99.90
42913;DHT22;50720;54.324;18.558;2023-07-24T03:31:10;15.20;99.90
42913;DHT22;50720;54.324;18.558;2023-07-24T03:33:39;15.20;99.90
42913;DHT22;50720;54.324;18.558;2023-07-24T03:36:09;15.30;99.90
42913;DHT22;50720;54.324;18.558;2023-07-24T03:38:39;15.30;99.90
42913;DHT22;50720;54.324;18.558;2023-07-24T03:41:11;15.40;99.90
42913;DHT22;50720;54.324;18.558;2023-07-24T03:43:40;15.50;99.90
42913;DHT22;50720;54.324;18.558;2023-07-24T03:46:10;15.50;99.90
42913;DHT22;50720;54.324;18.558;2023-07-24T03:48:40;15.60;99.90
42913;DHT22;50720;54.324;18.558;2023-07-24T03:51:10;15.60;99.90
42913;DHT22;50720;54.324;18.558;2023-07-24T03:53:39;15.70;99.90
42913;DHT22;50720;54.324;18.558;2023-07-24T03:56:11;15.80;99.90
42913;DHT22;50720;54.324;18.558;2023-07-24T03:58:40;15.80;99.90
42913;DHT22;50720;54.324;18.558;2023-07-24T04:01:10;15.90;99.90
42913;DHT22;50720;54.324;18.558;2023-07-24T04:03:40;15.90;99.90
42913;DHT22;50720;54.324;18.558;2023-07-24T04:06:10;16.00;99.90
42913;DHT22;50720;54.324;18.558;2023-07-24T04:08:40;16.00;99.90
42913;DHT22;50720;54.324;18.558;2023-07-24T04:11:11;16.20;99.90
42913;DHT22;50720;54.324;18.558;2023-07-24T04:13:41;16.10;99.90
42913;DHT22;50720;54.324;18.558;2023-07-24T04:16:11;16.20;99.90
42913;DHT22;50720;54.324;18.558;2023-07-24T04:18:40;16.30;99.90
42913;DHT22;50720;54.324;18.558;2023-07-24T04:21:10;16.40;99.90
42913;DHT22;50720;54.324;18.558;2023-07-24T04:23:40;16.40;99.90
42913;DHT22;50720;54.324;18.558;2023-07-24T04:26:11;16.50;99.90
42913;DHT22;50720;54.324;18.558;2023-07-24T04:28:41;16.50;99.90
42913;DHT22;50720;54.324;18.558;2023-07-24T04:31:11;16.70;99.90
42913;DHT22;50720;54.324;18.558;2023-07-24T04:33:41;16.70;99.90
42913;DHT22;50720;54.324;18.558;2023-07-24T04:36:11;17.00;99.90
42913;DHT22;50720;54.324;18.558;2023-07-24T04:38:44;17.00;99.90
42913;DHT22;50720;54.324;18.558;2023-07-24T04:41:16;17.10;99.90
42913;DHT22;50720;54.324;18.558;2023-07-24T04:43:45;17.30;99.90
42913;DHT22;50720;54.324;18.558;2023-07-24T04:46:15;17.60;99.90
42913;DHT22;50720;54.324;18.558;2023-07-24T04:48:45;17.60;99.90
42913;DHT22;50720;54.324;18.558;2023-07-24T04:51:15;17.90;99.90
42913;DHT22;50720;54.324;18.558;2023-07-24T04:53:46;18.00;99.90
42913;DHT22;50720;54.324;18.558;2023-07-24T04:56:18;18.20;99.90
42913;DHT22;50720;54.324;18.558;2023-07-24T04:58:47;18.20;99.90
42913;DHT22;50720;54.324;18.558;2023-07-24T05:01:17;18.30;99.90
42913;DHT22;50720;54.324;18.558;2023-07-24T05:03:47;18.50;99.90
42913;DHT22;50720;54.324;18.558;2023-07-24T05:06:17;18.40;99.90
42913;DHT22;50720;54.324;18.558;2023-07-24T05:08:46;18.50;99.90
42913;DHT22;50720;54.324;18.558;2023-07-24T05:11:18;18.50;99.90
42913;DHT22;50720;54.324;18.558;2023-07-24T05:13:48;18.50;99.90
42913;DHT22;50720;54.324;18.558;2023-07-24T05:16:18;18.50;99.90
42913;DHT22;50720;54.324;18.558;2023-07-24T05:18:47;18.50;99.90
42913;DHT22;50720;54.324;18.558;2023-07-24T05:21:17;18.50;99.90
42913;DHT22;50720;54.324;18.558;2023-07-24T05:23:48;18.60;99.90
42913;DHT22;50720;54.324;18.558;2023-07-24T05:26:19;18.60;99.90
42913;DHT22;50720;54.324;18.558;2023-07-24T05:28:50;18.60;99.90
42913;DHT22;50720;54.324;18.558;2023-07-24T05:31:21;18.70;99.90
42913;DHT22;50720;54.324;18.558;2023-07-24T05:33:50;18.70;99.90
42913;DHT22;50720;54.324;18.558;2023-07-24T05:36:20;18.70;99.90
42913;DHT22;50720;54.324;18.558;2023-07-24T05:38:51;18.80;99.90
42913;DHT22;50720;54.324;18.558;2023-07-24T05:41:23;18.80;99.90
42913;DHT22;50720;54.324;18.558;2023-07-24T05:43:53;18.80;99.90
42913;DHT22;50720;54.324;18.558;2023-07-24T05:46:24;18.70;99.90
42913;DHT22;50720;54.324;18.558;2023-07-24T05:48:54;18.70;99.90
42913;DHT22;50720;54.324;18.558;2023-07-24T05:51:25;18.70;99.90
42913;DHT22;50720;54.324;18.558;2023-07-24T05:53:54;18.70;99.90
42913;DHT22;50720;54.324;18.558;2023-07-24T05:56:26;18.80;99.90
42913;DHT22;50720;54.324;18.558;2023-07-24T05:58:56;18.80;99.90
42913;DHT22;50720;54.324;18.558;2023-07-24T06:01:26;18.90;99.90
42913;DHT22;50720;54.324;18.558;2023-07-24T06:03:56;18.90;99.90
42913;DHT22;50720;54.324;18.558;2023-07-24T06:06:26;18.90;99.90
42913;DHT22;50720;54.324;18.558;2023-07-24T06:08:56;18.80;99.90
42913;DHT22;50720;54.324;18.558;2023-07-24T06:11:28;19.00;99.90
42913;DHT22;50720;54.324;18.558;2023-07-24T06:13:57;19.10;99.90
42913;DHT22;50720;54.324;18.558;2023-07-24T06:16:27;19.20;99.90
42913;DHT22;50720;54.324;18.558;2023-07-24T06:18:57;19.10;99.90
42913;DHT22;50720;54.324;18.558;2023-07-24T06:21:27;19.10;99.90
42913;DHT22;50720;54.324;18.558;2023-07-24T06:23:57;19.20;99.90
42913;DHT22;50720;54.324;18.558;2023-07-24T06:26:28;19.20;99.90
42913;DHT22;50720;54.324;18.558;2023-07-24T06:28:59;19.30;99.90
42913;DHT22;50720;54.324;18.558;2023-07-24T06:31:28;19.40;99.90
42913;DHT22;50720;54.324;18.558;2023-07-24T06:33:58;19.50;99.90
42913;DHT22;50720;54.324;18.558;2023-07-24T06:36:28;19.60;99.90
42913;DHT22;50720;54.324;18.558;2023-07-24T06:39:02;19.90;99.90
42913;DHT22;50720;54.324;18.558;2023-07-24T06:41:34;20.30;99.90
42913;DHT22;50720;54.324;18.558;2023-07-24T06:44:04;20.50;99.90
42913;DHT22;50720;54.324;18.558;2023-07-24T06:46:34;20.50;99.90
42913;DHT22;50720;54.324;18.558;2023-07-24T06:49:04;20.60;99.90
42913;DHT22;50720;54.324;18.558;2023-07-24T06:51:34;20.80;99.90
42913;DHT22;50720;54.324;18.558;2023-07-24T06:54:03;20.90;99.90
42913;DHT22;50720;54.324;18.558;2023-07-24T06:56:35;21.00;99.90
42913;DHT22;50720;54.324;18.558;2023-07-24T06:59:05;21.10;99.90
42913;DHT22;50720;54.324;18.558;2023-07-24T07:01:35;21.20;99.90
42913;DHT22;50720;54.324;18.558;2023-07-24T07:04:05;21.30;99.90
42913;DHT22;50720;54.324;18.558;2023-07-24T07:06:34;21.40;99.90
42913;DHT22;50720;54.324;18.558;2023-07-24T07:09:05;21.40;99.90
42913;DHT22;50720;54.324;18.558;2023-07-24T07:11:37;21.40;99.90
42913;DHT22;50720;54.324;18.558;2023-07-24T07:14:06;21.50;99.90
42913;DHT22;50720;54.324;18.558;2023-07-24T07:16:36;21.50;99.90
42913;DHT22;50720;54.324;18.558;2023-07-24T07:19:06;21.50;99.90
42913;DHT22;50720;54.324;18.558;2023-07-24T07:21:37;21.30;99.90
42913;DHT22;50720;54.324;18.558;2023-07-24T07:24:07;21.30;99.90
42913;DHT22;50720;54.324;18.558;2023-07-24T07:26:38;21.50;99.90
42913;DHT22;50720;54.324;18.558;2023-07-24T07:29:08;21.60;99.90
42913;DHT22;50720;54.324;18.558;2023-07-24T07:31:38;21.70;99.90
42913;DHT22;50720;54.324;18.558;2023-07-24T07:34:08;21.70;99.90
42913;DHT22;50720;54.324;18.558;2023-07-24T07:36:38;21.70;99.90
42913;DHT22;50720;54.324;18.558;2023-07-24T07:39:08;21.80;99.90
42913;DHT22;50720;54.324;18.558;2023-07-24T07:41:39;21.70;99.90
42913;DHT22;50720;54.324;18.558;2023-07-24T07:44:09;21.70;99.90
42913;DHT22;50720;54.324;18.558;2023-07-24T07:46:39;21.90;99.90
42913;DHT22;50720;54.324;18.558;2023-07-24T07:49:09;21.90;99.90
42913;DHT22;50720;54.324;18.558;2023-07-24T07:51:39;22.00;99.90
42913;DHT22;50720;54.324;18.558;2023-07-24T07:54:08;21.90;99.90
42913;DHT22;50720;54.324;18.558;2023-07-24T07:56:40;21.80;99.90
42913;DHT22;50720;54.324;18.558;2023-07-24T07:59:09;21.70;99.90
42913;DHT22;50720;54.324;18.558;2023-07-24T08:01:39;21.60;99.90
42913;DHT22;50720;54.324;18.558;2023-07-24T08:04:10;21.80;99.90
42913;DHT22;50720;54.324;18.558;2023-07-24T08:06:40;21.80;99.90
42913;DHT22;50720;54.324;18.558;2023-07-24T08:09:10;21.90;99.90
42913;DHT22;50720;54.324;18.558;2023-07-24T08:11:42;22.00;99.90
42913;DHT22;50720;54.324;18.558;2023-07-24T08:14:11;22.10;99.90
42913;DHT22;50720;54.324;18.558;2023-07-24T08:16:41;22.30;99.90
42913;DHT22;50720;54.324;18.558;2023-07-24T08:19:13;22.40;99.90
42913;DHT22;50720;54.324;18.558;2023-07-24T08:21:42;22.40;99.90
42913;DHT22;50720;54.324;18.558;2023-07-24T08:24:12;22.50;99.90
42913;DHT22;50720;54.324;18.558;2023-07-24T08:26:44;22.50;99.90
42913;DHT22;50720;54.324;18.558;2023-07-24T08:29:14;22.50;99.90
42913;DHT22;50720;54.324;18.558;2023-07-24T08:31:44;22.60;99.90
42913;DHT22;50720;54.324;18.558;2023-07-24T08:34:13;22.40;99.90
42913;DHT22;50720;54.324;18.558;2023-07-24T08:36:43;22.50;99.90
42913;DHT22;50720;54.324;18.558;2023-07-24T08:39:13;22.50;99.90
42913;DHT22;50720;54.324;18.558;2023-07-24T08:41:45;22.50;99.90
42913;DHT22;50720;54.324;18.558;2023-07-24T08:44:15;22.60;99.90
42913;DHT22;50720;54.324;18.558;2023-07-24T08:46:46;22.70;99.90
42913;DHT22;50720;54.324;18.558;2023-07-24T08:49:19;22.70;99.90
42913;DHT22;50720;54.324;18.558;2023-07-24T08:51:49;22.90;99.90
42913;DHT22;50720;54.324;18.558;2023-07-24T08:54:19;22.90;99.90
42913;DHT22;50720;54.324;18.558;2023-07-24T08:56:51;22.50;99.90
42913;DHT22;50720;54.324;18.558;2023-07-24T08:59:21;22.50;99.90
42913;DHT22;50720;54.324;18.558;2023-07-24T09:01:51;22.50;99.90
42913;DHT22;50720;54.324;18.558;2023-07-24T09:04:21;22.50;99.90
42913;DHT22;50720;54.324;18.558;2023-07-24T09:06:51;22.60;99.90
42913;DHT22;50720;54.324;18.558;2023-07-24T09:09:21;22.60;99.90
42913;DHT22;50720;54.324;18.558;2023-07-24T09:11:53;22.60;99.90
42913;DHT22;50720;54.324;18.558;2023-07-24T09:14:24;22.60;99.90
42913;DHT22;50720;54.324;18.558;2023-07-24T09:17:04;22.80;99.90
42913;DHT22;50720;54.324;18.558;2023-07-24T09:19:34;22.80;99.90
42913;DHT22;50720;54.324;18.558;2023-07-24T09:22:08;22.80;99.90
42913;DHT22;50720;54.324;18.558;2023-07-24T09:24:49;22.70;99.90
42913;DHT22;50720;54.324;18.558;2023-07-24T09:27:25;22.70;99.90
42913;DHT22;50720;54.324;18.558;2023-07-24T09:29:56;22.80;99.90
42913;DHT22;50720;54.324;18.558;2023-07-24T09:32:26;22.80;99.90
42913;DHT22;50720;54.324;18.558;2023-07-24T09:34:57;22.60;99.90
42913;DHT22;50720;54.324;18.558;2023-07-24T09:37:28;22.60;99.90
42913;DHT22;50720;54.324;18.558;2023-07-24T09:39:58;22.60;99.90
42913;DHT22;50720;54.324;18.558;2023-07-24T09:42:31;22.70;99.90
42913;DHT22;50720;54.324;18.558;2023-07-24T09:45:01;22.70;99.90
42913;DHT22;50720;54.324;18.558;2023-07-24T09:47:31;22.80;99.90
42913;DHT22;50720;54.324;18.558;2023-07-24T09:50:21;22.80;99.90
42913;DHT22;50720;54.324;18.558;2023-07-24T09:52:52;23.00;99.90
42913;DHT22;50720;54.324;18.558;2023-07-24T09:55:27;23.10;99.90
42913;DHT22;50720;54.324;18.558;2023-07-24T09:58:01;23.30;99.90
42913;DHT22;50720;54.324;18.558;2023-07-24T10:00:31;23.30;99.90
42913;DHT22;50720;54.324;18.558;2023-07-24T10:03:02;23.40;99.90
42913;DHT22;50720;54.324;18.558;2023-07-24T10:05:32;23.40;99.90
42913;DHT22;50720;54.324;18.558;2023-07-24T10:08:02;23.40;99.90
42913;DHT22;50720;54.324;18.558;2023-07-24T10:10:32;23.50;99.90
42913;DHT22;50720;54.324;18.558;2023-07-24T10:13:04;23.70;99.90
42913;DHT22;50720;54.324;18.558;2023-07-24T10:15:33;23.60;99.90
42913;DHT22;50720;54.324;18.558;2023-07-24T10:18:05;23.80;99.90
42913;DHT22;50720;54.324;18.558;2023-07-24T10:20:36;23.80;99.90
42913;DHT22;50720;54.324;18.558;2023-07-24T10:23:09;24.00;99.90
42913;DHT22;50720;54.324;18.558;2023-07-24T10:25:40;24.00;99.90
42913;DHT22;50720;54.324;18.558;2023-07-24T10:28:11;24.10;99.90
42913;DHT22;50720;54.324;18.558;2023-07-24T10:30:44;23.90;99.90
42913;DHT22;50720;54.324;18.558;2023-07-24T10:33:17;23.90;99.90
42913;DHT22;50720;54.324;18.558;2023-07-24T10:35:49;24.10;99.90
42913;DHT22;50720;54.324;18.558;2023-07-24T10:38:19;24.30;99.90
42913;DHT22;50720;54.324;18.558;2023-07-24T10:41:01;24.50;99.90
42913;DHT22;50720;54.324;18.558;2023-07-24T10:43:42;24.70;99.90
42913;DHT22;50720;54.324;18.558;2023-07-24T10:46:16;24.70;99.90
42913;DHT22;50720;54.324;18.558;2023-07-24T10:48:49;24.70;99.90
42913;DHT22;50720;54.324;18.558;2023-07-24T10:51:18;25.30;99.90
42913;DHT22;50720;54.324;18.558;2023-07-24T10:53:49;25.30;99.90
42913;DHT22;50720;54.324;18.558;2023-07-24T10:56:19;25.70;99.90
42913;DHT22;50720;54.324;18.558;2023-07-24T10:58:50;26.20;99.90
42913;DHT22;50720;54.324;18.558;2023-07-24T11:01:20;26.80;99.90
42913;DHT22;50720;54.324;18.558;2023-07-24T11:03:50;26.90;99.90
42913;DHT22;50720;54.324;18.558;2023-07-24T11:06:20;27.50;99.90
42913;DHT22;50720;54.324;18.558;2023-07-24T11:08:54;27.40;99.90
42913;DHT22;50720;54.324;18.558;2023-07-24T11:11:28;27.30;99.90
42913;DHT22;50720;54.324;18.558;2023-07-24T11:14:01;27.20;99.90
42913;DHT22;50720;54.324;18.558;2023-07-24T11:16:31;27.00;99.90
42913;DHT22;50720;54.324;18.558;2023-07-24T11:19:03;27.30;99.90
42913;DHT22;50720;54.324;18.558;2023-07-24T11:21:33;27.20;99.90
42913;DHT22;50720;54.324;18.558;2023-07-24T11:24:07;26.90;99.90
42913;DHT22;50720;54.324;18.558;2023-07-24T11:26:37;26.60;99.90
42913;DHT22;50720;54.324;18.558;2023-07-24T11:29:13;26.30;99.90
42913;DHT22;50720;54.324;18.558;2023-07-24T11:31:42;26.40;99.90
42913;DHT22;50720;54.324;18.558;2023-07-24T11:34:12;26.40;99.90
42913;DHT22;50720;54.324;18.558;2023-07-24T11:36:42;26.10;99.90
42913;DHT22;50720;54.324;18.558;2023-07-24T11:39:12;26.20;99.90
42913;DHT22;50720;54.324;18.558;2023-07-24T11:41:45;25.70;99.90
42913;DHT22;50720;54.324;18.558;2023-07-24T11:44:24;25.50;99.90
42913;DHT22;50720;54.324;18.558;2023-07-24T11:47:01;25.40;99.90
42913;DHT22;50720;54.324;18.558;2023-07-24T11:49:32;25.30;99.90
42913;DHT22;50720;54.324;18.558;2023-07-24T11:52:03;25.30;99.90
42913;DHT22;50720;54.324;18.558;2023-07-24T11:54:34;25.40;99.90
42913;DHT22;50720;54.324;18.558;2023-07-24T11:57:14;26.50;99.90
42913;DHT22;50720;54.324;18.558;2023-07-24T11:59:47;26.60;99.90
42913;DHT22;50720;54.324;18.558;2023-07-24T12:02:16;26.70;99.90
42913;DHT22;50720;54.324;18.558;2023-07-24T12:04:54;26.70;99.90
42913;DHT22;50720;54.324;18.558;2023-07-24T12:07:30;26.50;99.90
42913;DHT22;50720;54.324;18.558;2023-07-24T12:10:01;26.30;99.90
42913;DHT22;50720;54.324;18.558;2023-07-24T12:12:39;26.10;99.90
42913;DHT22;50720;54.324;18.558;2023-07-24T12:15:11;26.50;99.90
42913;DHT22;50720;54.324;18.558;2023-07-24T12:17:42;27.30;99.90
42913;DHT22;50720;54.324;18.558;2023-07-24T12:20:11;27.60;99.90
42913;DHT22;50720;54.324;18.558;2023-07-24T12:22:41;27.80;99.90
42913;DHT22;50720;54.324;18.558;2023-07-24T12:25:11;27.90;99.90
42913;DHT22;50720;54.324;18.558;2023-07-24T12:27:41;28.30;99.90
42913;DHT22;50720;54.324;18.558;2023-07-24T12:30:13;28.50;99.90
42913;DHT22;50720;54.324;18.558;2023-07-24T12:32:43;28.40;99.90
42913;DHT22;50720;54.324;18.558;2023-07-24T12:35:13;28.40;99.90
42913;DHT22;50720;54.324;18.558;2023-07-24T12:37:44;28.40;99.90
42913;DHT22;50720;54.324;18.558;2023-07-24T12:40:14;28.40;99.90
42913;DHT22;50720;54.324;18.558;2023-07-24T12:42:43;28.10;99.90
42913;DHT22;50720;54.324;18.558;2023-07-24T12:45:15;28.30;99.90
42913;DHT22;50720;54.324;18.558;2023-07-24T12:47:45;28.80;99.90
42913;DHT22;50720;54.324;18.558;2023-07-24T12:50:15;29.20;99.90
42913;DHT22;50720;54.324;18.558;2023-07-24T12:52:45;29.20;99.90
42913;DHT22;50720;54.324;18.558;2023-07-24T12:55:16;29.10;99.30
42913;DHT22;50720;54.324;18.558;2023-07-24T13:00:45;28.80;99.80
42913;DHT22;50720;54.324;18.558;2023-07-24T13:03:16;29.10;99.90
42913;DHT22;50720;54.324;18.558;2023-07-24T13:05:45;29.50;99.50
42913;DHT22;50720;54.324;18.558;2023-07-24T13:08:15;29.70;99.20
42913;DHT22;50720;54.324;18.558;2023-07-24T13:10:50;30.20;98.10
42913;DHT22;50720;54.324;18.558;2023-07-24T13:13:20;30.30;96.70
42913;DHT22;50720;54.324;18.558;2023-07-24T13:15:51;30.30;96.90
42913;DHT22;50720;54.324;18.558;2023-07-24T13:18:21;30.30;96.60
42913;DHT22;50720;54.324;18.558;2023-07-24T13:20:56;30.20;96.80
42913;DHT22;50720;54.324;18.558;2023-07-24T13:23:26;29.70;97.00
42913;DHT22;50720;54.324;18.558;2023-07-24T13:25:55;29.70;97.20
42913;DHT22;50720;54.324;18.558;2023-07-24T13:28:25;29.60;97.30
42913;DHT22;50720;54.324;18.558;2023-07-24T13:30:56;29.60;97.50
42913;DHT22;50720;54.324;18.558;2023-07-24T13:33:26;29.00;96.60
42913;DHT22;50720;54.324;18.558;2023-07-24T13:35:56;29.00;96.90
42913;DHT22;50720;54.324;18.558;2023-07-24T13:38:25;28.70;98.20
42913;DHT22;50720;54.324;18.558;2023-07-24T13:40:55;28.50;98.00
42913;DHT22;50720;54.324;18.558;2023-07-24T13:43:25;27.90;99.40
42913;DHT22;50720;54.324;18.558;2023-07-24T13:45:57;27.80;99.50
42913;DHT22;50720;54.324;18.558;2023-07-24T13:48:27;27.40;99.90
42913;DHT22;50720;54.324;18.558;2023-07-24T13:50:57;27.40;99.90
42913;DHT22;50720;54.324;18.558;2023-07-24T13:53:27;28.40;99.90
42913;DHT22;50720;54.324;18.558;2023-07-24T13:55:56;28.80;99.50
42913;DHT22;50720;54.324;18.558;2023-07-24T13:58:26;29.20;98.80
42913;DHT22;50720;54.324;18.558;2023-07-24T14:00:57;29.20;99.00
42913;DHT22;50720;54.324;18.558;2023-07-24T14:03:28;29.10;98.30
42913;DHT22;50720;54.324;18.558;2023-07-24T14:05:57;29.10;98.40
42913;DHT22;50720;54.324;18.558;2023-07-24T14:08:27;29.20;97.30
42913;DHT22;50720;54.324;18.558;2023-07-24T14:10:57;29.10;97.50
42913;DHT22;50720;54.324;18.558;2023-07-24T14:13:27;29.40;97.40
42913;DHT22;50720;54.324;18.558;2023-07-24T14:15:58;29.40;97.60
42913;DHT22;50720;54.324;18.558;2023-07-24T14:18:28;29.50;96.80
42913;DHT22;50720;54.324;18.558;2023-07-24T14:20:58;29.40;97.10
42913;DHT22;50720;54.324;18.558;2023-07-24T14:23:28;29.20;97.60
42913;DHT22;50720;54.324;18.558;2023-07-24T14:25:58;29.20;97.70
42913;DHT22;50720;54.324;18.558;2023-07-24T14:28:28;28.40;98.30
42913;DHT22;50720;54.324;18.558;2023-07-24T14:31:00;28.40;98.60
42913;DHT22;50720;54.324;18.558;2023-07-24T14:33:30;28.20;99.20
42913;DHT22;50720;54.324;18.558;2023-07-24T14:35:59;28.20;99.40
42913;DHT22;50720;54.324;18.558;2023-07-24T14:38:30;28.20;98.60
42913;DHT22;50720;54.324;18.558;2023-07-24T14:40:59;28.20;98.80
42913;DHT22;50720;54.324;18.558;2023-07-24T14:43:30;28.20;98.10
42913;DHT22;50720;54.324;18.558;2023-07-24T14:46:01;28.20;98.50
42913;DHT22;50720;54.324;18.558;2023-07-24T14:48:31;27.80;98.80
42913;DHT22;50720;54.324;18.558;2023-07-24T14:51:01;27.70;98.90
42913;DHT22;50720;54.324;18.558;2023-07-24T14:53:31;27.50;98.80
42913;DHT22;50720;54.324;18.558;2023-07-24T14:56:00;27.50;99.10
42913;DHT22;50720;54.324;18.558;2023-07-24T14:58:30;27.40;99.50
42913;DHT22;50720;54.324;18.558;2023-07-24T15:01:01;27.30;99.90
42913;DHT22;50720;54.324;18.558;2023-07-24T15:03:31;27.10;99.90
42913;DHT22;50720;54.324;18.558;2023-07-24T15:06:01;27.10;99.90
42913;DHT22;50720;54.324;18.558;2023-07-24T15:08:33;27.20;99.90
42913;DHT22;50720;54.324;18.558;2023-07-24T15:11:03;27.20;99.90
42913;DHT22;50720;54.324;18.558;2023-07-24T15:13:33;27.30;99.90
42913;DHT22;50720;54.324;18.558;2023-07-24T15:16:04;27.30;99.90
42913;DHT22;50720;54.324;18.558;2023-07-24T15:18:34;27.70;99.40
42913;DHT22;50720;54.324;18.558;2023-07-24T15:21:04;27.80;99.70
42913;DHT22;50720;54.324;18.558;2023-07-24T15:23:34;28.00;98.30
42913;DHT22;50720;54.324;18.558;2023-07-24T15:26:04;28.00;98.70
42913;DHT22;50720;54.324;18.558;2023-07-24T15:28:34;28.40;98.00
42913;DHT22;50720;54.324;18.558;2023-07-24T15:31:05;28.40;98.10
42913;DHT22;50720;54.324;18.558;2023-07-24T15:33:38;28.70;97.50
42913;DHT22;50720;54.324;18.558;2023-07-24T15:36:08;28.70;97.60
42913;DHT22;50720;54.324;18.558;2023-07-24T15:38:38;28.90;97.00
42913;DHT22;50720;54.324;18.558;2023-07-24T15:41:08;28.80;96.50